• Join FlightAware (Why Join?)
  • Login
  • US Flag 
03:22PM EDT


 

Airport Tracker/Info


-or-


 

Live Flight TrackerFlight Track Log ✈ N600TR ✈ 13-Aug-2013 ✈ KATL - KBHM

Flight Track Log - Related Links

Times and Time Zones

All times are in EDT time to prevent confusion due to time zone crossing. See the N600TR flight status page for this flight to view local times or setup timezone preferences in your user account.

Time Position Orientation Groundspeed Altitude Reporting Facility
EDT Latitude Longitude Course Direction KTS MPH feet Rate Location/Type
09:04AM 33.6494 -84.4631 263° West 383 441 2,900  Level Atlanta Center
09:05AM 33.6742 -84.5356 292° West 293 337 4,900 2,460 Climbing Atlanta Center
09:06AM 33.6969 -84.6156 289° West 268 308 7,900 2,520 Climbing Atlanta Center
09:07AM 33.6836 -84.8852 280° West  Level FlightAware Approximate
09:07AM 33.7089 -84.7106 279° West 280 322 10,000  Level Atlanta Center
09:08AM 33.7003 -85.0017 280° West  Level FlightAware Approximate
09:08AM 33.7000 -84.8078 264° West 296 341 10,900  Level Atlanta Center
09:09AM 33.7164 -85.1181 257° West  Level FlightAware Approximate
09:09AM 33.6908 -84.9153 264° West 314 361 13,000  Level Atlanta Center
09:10AM 33.6983 -85.2339 263° West  Level FlightAware Approximate
09:10AM 33.6631 -85.0297 254° West 342 394 14,100  Level Atlanta Center
09:11AM 33.6431 -85.1542 259° West 371 427 15,100 420 Climbing Atlanta Center
09:12AM 33.6314 -85.2789 264° West 384 442 15,000  Descending Atlanta Center
09:13AM 33.6219 -85.3983 265° West 378 435 15,100  Climbing Atlanta Center
09:14AM 33.6142 -85.5181 266° West 362 417 15,000 -420 Descending Atlanta Center
09:15AM 33.6067 -85.6153 265° West 347 399 14,300 -960 Descending Atlanta Center
09:16AM 33.6053 -85.7225 269° West 333 383 13,100 -1,620 Descending Atlanta Center
09:17AM 33.5961 -85.7944 261° West 329 379 11,900 -1,560 Descending Atlanta Center
09:18AM 33.5903 -85.9017 266° West 352 405 10,900 -660 Descending Atlanta Center
09:18AM 33.5914 -85.9564 271° West 339 390 11,000 60 Climbing Atlanta Center
09:19AM 33.5817 -86.0511 263° West 322 371 11,000  Level Atlanta Center
09:20AM 33.5786 -86.1033 266° West 257 296 11,000  Level Atlanta Center
09:21AM 33.5733 -86.1781 265° West 262 302 11,000 -420 Level Atlanta Center
09:21AM 33.5703 -86.2278 266° West 286 329 10,400 -1,320 Descending Atlanta Center
09:22AM 33.5644 -86.3175 266° West 275 316 8,900 -1,680 Descending Atlanta Center
09:23AM 33.5567 -86.4044 264° West 266 306 7,100 -1,620 Descending Atlanta Center
09:24AM 33.5508 -86.4892 265° West 266 306 5,700 -1,080 Descending Atlanta Center
09:25AM 33.5428 -86.5761 264° West 266 306 5,000 -480 Descending Atlanta Center
09:26AM 33.5375 -86.6258 263° West 257 296 5,000  Level Atlanta Center
09:27AM 33.5131 -86.6897 245° Southwest 260 299 5,000 -240 Level Atlanta Center
09:28AM 33.4761 -86.7608 238° Southwest 259 298 4,600 -600 Descending Atlanta Center
09:28AM 33.4372 -86.8244 234° Southwest 261 300 4,000 -360 Descending Atlanta Center
09:29AM 33.4044 -86.8906 239° Southwest 230 265 4,000  Level Atlanta Center
09:30AM 33.3739 -86.9442 236° Southwest 179 206 4,000  Level Atlanta Center
09:32AM 33.3642 -87.0036 259° West 193 222 4,000 -300 Level Atlanta Center
09:33AM 33.4122 -86.9978 North 204 235 3,400 -540 Descending Atlanta Center
09:34AM 33.4531 -86.9444 47° Northeast 212 244 3,000 -240 Descending Atlanta Center
09:35AM 33.4856 -86.8931 53° Northeast 188 216 3,000 -480 Level Atlanta Center
09:35AM 33.5097 -86.8467 58° Northeast 174 200 2,100 -900 Descending Atlanta Center
09:37AM 33.5336 -86.8075 54° Northeast 145 167 1,300 -840 Descending Atlanta Center